sensor_id;sensor_type;location;lat;lon;timestamp;P1;durP1;ratioP1;P2;durP2;ratioP2
43646;SDS011;56152;49.996;18.980;2023-02-18T00:01:25;6.05;;;4.25;;
43646;SDS011;56152;49.996;18.980;2023-02-18T00:06:30;7.60;;;4.22;;
43646;SDS011;56152;49.996;18.980;2023-02-18T00:11:33;7.55;;;4.57;;
43646;SDS011;56152;49.996;18.980;2023-02-18T00:16:39;6.43;;;4.75;;
43646;SDS011;56152;49.996;18.980;2023-02-18T00:21:45;6.20;;;4.10;;
43646;SDS011;56152;49.996;18.980;2023-02-18T00:26:49;6.97;;;4.55;;
43646;SDS011;56152;49.996;18.980;2023-02-18T00:31:55;7.18;;;4.43;;
43646;SDS011;56152;49.996;18.980;2023-02-18T00:36:58;8.00;;;4.55;;
43646;SDS011;56152;49.996;18.980;2023-02-18T00:42:03;5.60;;;3.80;;
43646;SDS011;56152;49.996;18.980;2023-02-18T00:47:07;6.05;;;4.00;;
43646;SDS011;56152;49.996;18.980;2023-02-18T00:52:09;6.85;;;4.10;;
43646;SDS011;56152;49.996;18.980;2023-02-18T00:57:12;5.95;;;3.60;;
43646;SDS011;56152;49.996;18.980;2023-02-18T01:02:17;8.73;;;4.13;;
43646;SDS011;56152;49.996;18.980;2023-02-18T01:07:19;7.03;;;3.70;;
43646;SDS011;56152;49.996;18.980;2023-02-18T01:12:22;7.32;;;4.63;;
43646;SDS011;56152;49.996;18.980;2023-02-18T01:17:26;8.02;;;4.03;;
43646;SDS011;56152;49.996;18.980;2023-02-18T01:22:29;6.82;;;4.10;;
43646;SDS011;56152;49.996;18.980;2023-02-18T01:27:34;7.70;;;4.55;;
43646;SDS011;56152;49.996;18.980;2023-02-18T01:32:40;8.25;;;6.70;;
43646;SDS011;56152;49.996;18.980;2023-02-18T01:37:42;8.48;;;4.43;;
43646;SDS011;56152;49.996;18.980;2023-02-18T01:42:48;9.32;;;5.32;;
43646;SDS011;56152;49.996;18.980;2023-02-18T01:47:56;6.85;;;4.10;;
43646;SDS011;56152;49.996;18.980;2023-02-18T01:53:00;5.63;;;3.28;;
43646;SDS011;56152;49.996;18.980;2023-02-18T01:58:06;7.38;;;3.25;;
43646;SDS011;56152;49.996;18.980;2023-02-18T02:03:12;3.35;;;2.58;;
43646;SDS011;56152;49.996;18.980;2023-02-18T02:08:15;5.00;;;2.85;;
43646;SDS011;56152;49.996;18.980;2023-02-18T02:13:19;5.40;;;3.60;;
43646;SDS011;56152;49.996;18.980;2023-02-18T02:35:28;7.95;;;4.38;;
43646;SDS011;56152;49.996;18.980;2023-02-18T02:40:33;8.25;;;4.95;;
43646;SDS011;56152;49.996;18.980;2023-02-18T02:45:42;7.95;;;4.53;;
43646;SDS011;56152;49.996;18.980;2023-02-18T02:50:55;5.25;;;4.03;;
43646;SDS011;56152;49.996;18.980;2023-02-18T02:56:04;5.53;;;3.97;;
43646;SDS011;56152;49.996;18.980;2023-02-18T03:12:17;7.75;;;5.15;;
43646;SDS011;56152;49.996;18.980;2023-02-18T03:17:26;8.32;;;3.90;;
43646;SDS011;56152;49.996;18.980;2023-02-18T03:22:32;7.72;;;5.03;;
43646;SDS011;56152;49.996;18.980;2023-02-18T03:27:44;10.23;;;4.65;;
43646;SDS011;56152;49.996;18.980;2023-02-18T03:32:54;8.20;;;4.13;;
43646;SDS011;56152;49.996;18.980;2023-02-18T03:37:59;7.05;;;4.57;;
43646;SDS011;56152;49.996;18.980;2023-02-18T03:43:09;7.18;;;4.35;;
43646;SDS011;56152;49.996;18.980;2023-02-18T03:48:11;6.65;;;3.85;;
43646;SDS011;56152;49.996;18.980;2023-02-18T03:53:13;6.28;;;3.67;;
43646;SDS011;56152;49.996;18.980;2023-02-18T03:58:18;7.60;;;3.88;;
43646;SDS011;56152;49.996;18.980;2023-02-18T04:03:21;4.43;;;2.60;;
43646;SDS011;56152;49.996;18.980;2023-02-18T04:08:25;6.22;;;3.03;;
43646;SDS011;56152;49.996;18.980;2023-02-18T04:13:30;5.70;;;2.83;;
43646;SDS011;56152;49.996;18.980;2023-02-18T04:18:33;4.43;;;2.60;;
43646;SDS011;56152;49.996;18.980;2023-02-18T04:23:36;7.47;;;2.65;;
43646;SDS011;56152;49.996;18.980;2023-02-18T04:28:41;5.57;;;2.70;;
43646;SDS011;56152;49.996;18.980;2023-02-18T04:33:43;5.28;;;3.55;;
43646;SDS011;56152;49.996;18.980;2023-02-18T04:38:45;5.10;;;2.88;;
43646;SDS011;56152;49.996;18.980;2023-02-18T04:43:51;6.28;;;3.15;;
43646;SDS011;56152;49.996;18.980;2023-02-18T04:48:53;6.40;;;2.90;;
43646;SDS011;56152;49.996;18.980;2023-02-18T04:53:55;5.95;;;3.17;;
43646;SDS011;56152;49.996;18.980;2023-02-18T04:59:00;5.82;;;2.80;;
43646;SDS011;56152;49.996;18.980;2023-02-18T05:04:04;10.18;;;4.97;;
43646;SDS011;56152;49.996;18.980;2023-02-18T05:09:09;21.08;;;9.60;;
43646;SDS011;56152;49.996;18.980;2023-02-18T05:14:15;21.13;;;9.73;;
43646;SDS011;56152;49.996;18.980;2023-02-18T05:19:17;10.15;;;4.22;;
43646;SDS011;56152;49.996;18.980;2023-02-18T05:24:20;15.27;;;4.70;;
43646;SDS011;56152;49.996;18.980;2023-02-18T05:29:26;7.10;;;2.85;;
43646;SDS011;56152;49.996;18.980;2023-02-18T05:34:29;8.00;;;3.13;;
43646;SDS011;56152;49.996;18.980;2023-02-18T05:39:31;5.10;;;2.80;;
43646;SDS011;56152;49.996;18.980;2023-02-18T05:44:35;5.65;;;2.83;;
43646;SDS011;56152;49.996;18.980;2023-02-18T05:49:38;7.55;;;3.17;;
43646;SDS011;56152;49.996;18.980;2023-02-18T05:54:42;10.60;;;3.00;;
43646;SDS011;56152;49.996;18.980;2023-02-18T05:59:47;9.65;;;3.55;;
43646;SDS011;56152;49.996;18.980;2023-02-18T06:04:49;5.28;;;2.67;;
43646;SDS011;56152;49.996;18.980;2023-02-18T06:09:57;4.22;;;2.17;;
43646;SDS011;56152;49.996;18.980;2023-02-18T06:15:04;10.10;;;5.25;;
43646;SDS011;56152;49.996;18.980;2023-02-18T06:20:07;5.82;;;3.08;;
43646;SDS011;56152;49.996;18.980;2023-02-18T06:25:09;9.05;;;3.15;;
43646;SDS011;56152;49.996;18.980;2023-02-18T06:30:16;6.63;;;2.88;;
43646;SDS011;56152;49.996;18.980;2023-02-18T06:35:19;6.68;;;3.58;;
43646;SDS011;56152;49.996;18.980;2023-02-18T06:40:21;11.38;;;6.57;;
43646;SDS011;56152;49.996;18.980;2023-02-18T06:45:28;13.32;;;6.85;;
43646;SDS011;56152;49.996;18.980;2023-02-18T06:50:33;7.45;;;2.42;;
43646;SDS011;56152;49.996;18.980;2023-02-18T06:55:37;6.85;;;2.55;;
43646;SDS011;56152;49.996;18.980;2023-02-18T07:00:42;5.47;;;2.83;;
43646;SDS011;56152;49.996;18.980;2023-02-18T07:05:45;11.13;;;4.65;;
43646;SDS011;56152;49.996;18.980;2023-02-18T07:10:52;9.60;;;3.88;;
43646;SDS011;56152;49.996;18.980;2023-02-18T07:15:58;8.93;;;3.50;;
43646;SDS011;56152;49.996;18.980;2023-02-18T07:21:00;14.73;;;7.40;;
43646;SDS011;56152;49.996;18.980;2023-02-18T07:26:03;14.57;;;8.73;;
43646;SDS011;56152;49.996;18.980;2023-02-18T07:31:15;6.00;;;3.25;;
43646;SDS011;56152;49.996;18.980;2023-02-18T07:36:18;8.35;;;3.20;;
43646;SDS011;56152;49.996;18.980;2023-02-18T07:41:20;16.23;;;7.35;;
43646;SDS011;56152;49.996;18.980;2023-02-18T07:46:24;11.02;;;5.68;;
43646;SDS011;56152;49.996;18.980;2023-02-18T07:51:29;10.68;;;5.15;;
43646;SDS011;56152;49.996;18.980;2023-02-18T07:56:31;11.07;;;6.20;;
43646;SDS011;56152;49.996;18.980;2023-02-18T08:01:39;9.65;;;5.10;;
43646;SDS011;56152;49.996;18.980;2023-02-18T08:06:42;12.15;;;6.00;;
43646;SDS011;56152;49.996;18.980;2023-02-18T08:11:46;19.27;;;10.38;;
43646;SDS011;56152;49.996;18.980;2023-02-18T08:16:51;16.63;;;8.88;;
43646;SDS011;56152;49.996;18.980;2023-02-18T08:21:55;17.27;;;9.05;;
43646;SDS011;56152;49.996;18.980;2023-02-18T08:27:02;13.23;;;6.82;;
43646;SDS011;56152;49.996;18.980;2023-02-18T08:32:16;13.85;;;6.97;;
43646;SDS011;56152;49.996;18.980;2023-02-18T08:37:20;51.72;;;19.98;;
43646;SDS011;56152;49.996;18.980;2023-02-18T08:42:26;19.13;;;13.40;;
43646;SDS011;56152;49.996;18.980;2023-02-18T08:47:33;12.25;;;6.78;;
43646;SDS011;56152;49.996;18.980;2023-02-18T08:52:35;14.80;;;6.15;;
43646;SDS011;56152;49.996;18.980;2023-02-18T08:57:38;17.60;;;6.68;;
43646;SDS011;56152;49.996;18.980;2023-02-18T09:02:43;13.60;;;6.85;;
43646;SDS011;56152;49.996;18.980;2023-02-18T09:07:46;10.57;;;5.53;;
43646;SDS011;56152;49.996;18.980;2023-02-18T09:12:49;11.93;;;5.45;;
43646;SDS011;56152;49.996;18.980;2023-02-18T09:17:53;10.52;;;4.55;;
43646;SDS011;56152;49.996;18.980;2023-02-18T09:22:55;11.70;;;5.82;;
43646;SDS011;56152;49.996;18.980;2023-02-18T09:27:59;18.08;;;7.60;;
43646;SDS011;56152;49.996;18.980;2023-02-18T09:33:06;9.57;;;4.38;;
43646;SDS011;56152;49.996;18.980;2023-02-18T09:38:11;15.52;;;6.85;;
43646;SDS011;56152;49.996;18.980;2023-02-18T09:43:18;12.18;;;5.10;;
43646;SDS011;56152;49.996;18.980;2023-02-18T09:48:29;19.45;;;5.90;;
43646;SDS011;56152;49.996;18.980;2023-02-18T09:53:34;13.52;;;5.10;;
43646;SDS011;56152;49.996;18.980;2023-02-18T09:58:38;11.32;;;5.18;;
43646;SDS011;56152;49.996;18.980;2023-02-18T10:03:45;7.57;;;3.35;;
43646;SDS011;56152;49.996;18.980;2023-02-18T10:13:57;6.38;;;2.47;;
43646;SDS011;56152;49.996;18.980;2023-02-18T10:19:05;10.48;;;4.07;;
43646;SDS011;56152;49.996;18.980;2023-02-18T10:24:23;34.13;;;18.77;;
43646;SDS011;56152;49.996;18.980;2023-02-18T10:29:39;21.58;;;12.40;;
43646;SDS011;56152;49.996;18.980;2023-02-18T10:34:45;16.73;;;8.30;;
43646;SDS011;56152;49.996;18.980;2023-02-18T10:39:52;14.30;;;6.50;;
43646;SDS011;56152;49.996;18.980;2023-02-18T10:45:17;7.63;;;3.67;;
43646;SDS011;56152;49.996;18.980;2023-02-18T10:50:28;36.95;;;23.77;;
43646;SDS011;56152;49.996;18.980;2023-02-18T10:55:35;22.73;;;12.93;;
43646;SDS011;56152;49.996;18.980;2023-02-18T11:06:05;25.13;;;14.93;;
43646;SDS011;56152;49.996;18.980;2023-02-18T11:11:19;27.52;;;19.27;;
43646;SDS011;56152;49.996;18.980;2023-02-18T11:16:35;10.18;;;6.25;;
43646;SDS011;56152;49.996;18.980;2023-02-18T11:22:14;10.35;;;5.68;;
43646;SDS011;56152;49.996;18.980;2023-02-18T11:27:20;11.73;;;5.22;;
43646;SDS011;56152;49.996;18.980;2023-02-18T11:32:26;9.80;;;4.32;;
43646;SDS011;56152;49.996;18.980;2023-02-18T11:37:32;11.98;;;5.35;;
43646;SDS011;56152;49.996;18.980;2023-02-18T11:42:37;11.30;;;4.85;;
43646;SDS011;56152;49.996;18.980;2023-02-18T11:47:39;12.65;;;4.22;;
43646;SDS011;56152;49.996;18.980;2023-02-18T11:52:45;19.05;;;14.43;;
43646;SDS011;56152;49.996;18.980;2023-02-18T11:58:01;19.60;;;13.20;;
43646;SDS011;56152;49.996;18.980;2023-02-18T12:03:07;13.40;;;7.63;;
43646;SDS011;56152;49.996;18.980;2023-02-18T12:08:21;24.17;;;14.27;;
43646;SDS011;56152;49.996;18.980;2023-02-18T12:13:27;8.95;;;4.75;;
43646;SDS011;56152;49.996;18.980;2023-02-18T12:24:09;10.40;;;5.07;;
43646;SDS011;56152;49.996;18.980;2023-02-18T12:29:39;13.27;;;6.22;;
43646;SDS011;56152;49.996;18.980;2023-02-18T12:34:57;25.80;;;9.38;;
43646;SDS011;56152;49.996;18.980;2023-02-18T12:40:18;16.48;;;7.82;;
43646;SDS011;56152;49.996;18.980;2023-02-18T12:45:37;10.50;;;4.60;;
43646;SDS011;56152;49.996;18.980;2023-02-18T12:51:07;9.52;;;4.80;;
43646;SDS011;56152;49.996;18.980;2023-02-18T13:02:05;18.80;;;8.68;;
43646;SDS011;56152;49.996;18.980;2023-02-18T13:07:22;12.20;;;6.63;;
43646;SDS011;56152;49.996;18.980;2023-02-18T13:12:40;10.75;;;5.38;;
43646;SDS011;56152;49.996;18.980;2023-02-18T13:17:48;11.45;;;5.45;;
43646;SDS011;56152;49.996;18.980;2023-02-18T13:22:53;14.50;;;6.57;;
43646;SDS011;56152;49.996;18.980;2023-02-18T13:27:58;19.90;;;7.88;;
43646;SDS011;56152;49.996;18.980;2023-02-18T13:33:18;20.23;;;9.02;;
43646;SDS011;56152;49.996;18.980;2023-02-18T13:38:41;44.28;;;8.68;;
43646;SDS011;56152;49.996;18.980;2023-02-18T13:44:08;15.63;;;5.43;;
43646;SDS011;56152;49.996;18.980;2023-02-18T13:49:38;25.90;;;12.05;;
43646;SDS011;56152;49.996;18.980;2023-02-18T13:54:44;17.48;;;8.25;;
43646;SDS011;56152;49.996;18.980;2023-02-18T13:59:55;17.80;;;8.13;;
43646;SDS011;56152;49.996;18.980;2023-02-18T14:10:51;15.32;;;7.47;;
43646;SDS011;56152;49.996;18.980;2023-02-18T14:22:42;14.65;;;8.35;;
43646;SDS011;56152;49.996;18.980;2023-02-18T14:27:51;19.50;;;10.10;;
43646;SDS011;56152;49.996;18.980;2023-02-18T14:32:59;17.83;;;9.13;;
43646;SDS011;56152;49.996;18.980;2023-02-18T14:38:25;15.25;;;8.85;;
43646;SDS011;56152;49.996;18.980;2023-02-18T14:43:42;38.50;;;22.02;;
43646;SDS011;56152;49.996;18.980;2023-02-18T14:49:08;60.47;;;37.30;;
43646;SDS011;56152;49.996;18.980;2023-02-18T14:54:26;81.05;;;46.45;;
43646;SDS011;56152;49.996;18.980;2023-02-18T14:59:33;55.13;;;30.77;;
43646;SDS011;56152;49.996;18.980;2023-02-18T15:04:38;31.17;;;20.45;;
43646;SDS011;56152;49.996;18.980;2023-02-18T15:09:45;27.77;;;17.27;;
43646;SDS011;56152;49.996;18.980;2023-02-18T15:14:54;23.83;;;16.55;;
43646;SDS011;56152;49.996;18.980;2023-02-18T15:20:02;23.73;;;15.18;;
43646;SDS011;56152;49.996;18.980;2023-02-18T15:25:08;17.42;;;12.50;;
43646;SDS011;56152;49.996;18.980;2023-02-18T15:30:23;19.05;;;13.57;;
43646;SDS011;56152;49.996;18.980;2023-02-18T15:35:29;24.15;;;16.77;;
43646;SDS011;56152;49.996;18.980;2023-02-18T15:40:33;19.67;;;13.85;;
43646;SDS011;56152;49.996;18.980;2023-02-18T15:45:41;19.60;;;13.90;;
43646;SDS011;56152;49.996;18.980;2023-02-18T15:50:47;18.73;;;11.93;;
43646;SDS011;56152;49.996;18.980;2023-02-18T15:55:55;11.82;;;8.23;;
43646;SDS011;56152;49.996;18.980;2023-02-18T16:01:00;11.27;;;7.70;;
43646;SDS011;56152;49.996;18.980;2023-02-18T16:06:08;9.95;;;7.70;;
43646;SDS011;56152;49.996;18.980;2023-02-18T16:11:12;10.07;;;6.17;;
43646;SDS011;56152;49.996;18.980;2023-02-18T16:16:21;8.10;;;6.53;;
43646;SDS011;56152;49.996;18.980;2023-02-18T16:21:31;9.90;;;6.60;;
43646;SDS011;56152;49.996;18.980;2023-02-18T16:26:40;8.57;;;6.07;;
43646;SDS011;56152;49.996;18.980;2023-02-18T16:31:49;11.52;;;6.50;;
43646;SDS011;56152;49.996;18.980;2023-02-18T16:36:54;10.18;;;6.13;;
43646;SDS011;56152;49.996;18.980;2023-02-18T16:42:13;11.18;;;6.47;;
43646;SDS011;56152;49.996;18.980;2023-02-18T16:47:19;15.90;;;8.70;;
43646;SDS011;56152;49.996;18.980;2023-02-18T16:52:21;13.88;;;8.43;;
43646;SDS011;56152;49.996;18.980;2023-02-18T16:57:23;14.88;;;7.97;;
43646;SDS011;56152;49.996;18.980;2023-02-18T17:02:34;15.02;;;8.90;;
43646;SDS011;56152;49.996;18.980;2023-02-18T17:07:36;17.15;;;9.07;;
43646;SDS011;56152;49.996;18.980;2023-02-18T17:12:40;15.23;;;8.40;;
43646;SDS011;56152;49.996;18.980;2023-02-18T17:18:00;15.10;;;9.38;;
43646;SDS011;56152;49.996;18.980;2023-02-18T17:23:04;15.15;;;9.15;;
43646;SDS011;56152;49.996;18.980;2023-02-18T17:28:14;19.73;;;9.73;;
43646;SDS011;56152;49.996;18.980;2023-02-18T17:33:19;17.42;;;9.57;;
43646;SDS011;56152;49.996;18.980;2023-02-18T17:38:22;17.17;;;10.32;;
43646;SDS011;56152;49.996;18.980;2023-02-18T17:43:25;25.58;;;12.75;;
43646;SDS011;56152;49.996;18.980;2023-02-18T17:48:28;20.35;;;10.88;;
43646;SDS011;56152;49.996;18.980;2023-02-18T17:53:30;21.75;;;11.57;;
43646;SDS011;56152;49.996;18.980;2023-02-18T17:58:33;19.20;;;10.25;;
43646;SDS011;56152;49.996;18.980;2023-02-18T18:03:41;17.65;;;9.95;;
43646;SDS011;56152;49.996;18.980;2023-02-18T18:08:47;13.45;;;8.25;;
43646;SDS011;56152;49.996;18.980;2023-02-18T18:13:50;11.85;;;7.40;;
43646;SDS011;56152;49.996;18.980;2023-02-18T18:18:55;16.83;;;8.40;;
43646;SDS011;56152;49.996;18.980;2023-02-18T18:23:57;11.38;;;7.65;;
43646;SDS011;56152;49.996;18.980;2023-02-18T18:29:03;11.43;;;7.43;;
43646;SDS011;56152;49.996;18.980;2023-02-18T18:34:11;13.85;;;8.18;;
43646;SDS011;56152;49.996;18.980;2023-02-18T18:39:16;14.32;;;8.80;;
43646;SDS011;56152;49.996;18.980;2023-02-18T18:44:20;14.43;;;9.45;;
43646;SDS011;56152;49.996;18.980;2023-02-18T18:49:25;17.42;;;9.50;;
43646;SDS011;56152;49.996;18.980;2023-02-18T18:54:27;19.60;;;9.52;;
43646;SDS011;56152;49.996;18.980;2023-02-18T18:59:29;15.32;;;9.48;;
43646;SDS011;56152;49.996;18.980;2023-02-18T19:04:36;17.67;;;9.95;;
43646;SDS011;56152;49.996;18.980;2023-02-18T19:09:41;15.10;;;9.02;;
43646;SDS011;56152;49.996;18.980;2023-02-18T19:14:44;12.20;;;8.02;;
43646;SDS011;56152;49.996;18.980;2023-02-18T19:19:48;14.15;;;8.25;;
43646;SDS011;56152;49.996;18.980;2023-02-18T19:24:50;12.43;;;7.50;;
43646;SDS011;56152;49.996;18.980;2023-02-18T19:29:53;9.52;;;5.82;;
43646;SDS011;56152;49.996;18.980;2023-02-18T19:34:57;13.15;;;6.82;;
43646;SDS011;56152;49.996;18.980;2023-02-18T19:40:00;10.90;;;6.43;;
43646;SDS011;56152;49.996;18.980;2023-02-18T19:50:12;10.30;;;5.50;;
43646;SDS011;56152;49.996;18.980;2023-02-18T19:55:16;11.23;;;5.25;;
43646;SDS011;56152;49.996;18.980;2023-02-18T20:00:20;8.98;;;5.28;;
43646;SDS011;56152;49.996;18.980;2023-02-18T20:05:26;9.75;;;5.03;;
43646;SDS011;56152;49.996;18.980;2023-02-18T20:10:29;12.05;;;5.88;;
43646;SDS011;56152;49.996;18.980;2023-02-18T20:15:33;9.00;;;5.10;;
43646;SDS011;56152;49.996;18.980;2023-02-18T20:20:37;10.48;;;4.63;;
43646;SDS011;56152;49.996;18.980;2023-02-18T20:25:40;13.13;;;6.38;;
43646;SDS011;56152;49.996;18.980;2023-02-18T20:30:42;9.00;;;4.78;;
43646;SDS011;56152;49.996;18.980;2023-02-18T20:35:45;13.63;;;5.93;;
43646;SDS011;56152;49.996;18.980;2023-02-18T20:41:01;14.32;;;5.93;;
43646;SDS011;56152;49.996;18.980;2023-02-18T20:46:05;11.15;;;4.32;;
43646;SDS011;56152;49.996;18.980;2023-02-18T20:51:19;11.55;;;5.70;;
43646;SDS011;56152;49.996;18.980;2023-02-18T20:56:22;12.43;;;6.10;;
43646;SDS011;56152;49.996;18.980;2023-02-18T21:01:27;11.82;;;5.32;;
43646;SDS011;56152;49.996;18.980;2023-02-18T21:06:33;11.02;;;5.18;;
43646;SDS011;56152;49.996;18.980;2023-02-18T21:11:35;15.73;;;7.20;;
43646;SDS011;56152;49.996;18.980;2023-02-18T21:16:39;13.32;;;6.60;;
43646;SDS011;56152;49.996;18.980;2023-02-18T21:21:43;13.77;;;5.93;;
43646;SDS011;56152;49.996;18.980;2023-02-18T21:26:47;11.38;;;4.57;;
43646;SDS011;56152;49.996;18.980;2023-02-18T21:31:55;11.20;;;5.72;;
43646;SDS011;56152;49.996;18.980;2023-02-18T21:36:59;10.60;;;5.57;;
43646;SDS011;56152;49.996;18.980;2023-02-18T21:42:03;13.40;;;6.53;;
43646;SDS011;56152;49.996;18.980;2023-02-18T21:47:05;34.38;;;15.70;;
43646;SDS011;56152;49.996;18.980;2023-02-18T21:52:16;27.67;;;12.63;;
43646;SDS011;56152;49.996;18.980;2023-02-18T21:57:19;29.27;;;12.65;;
43646;SDS011;56152;49.996;18.980;2023-02-18T22:02:24;17.63;;;8.93;;
43646;SDS011;56152;49.996;18.980;2023-02-18T22:07:32;13.70;;;6.25;;
43646;SDS011;56152;49.996;18.980;2023-02-18T22:12:43;10.02;;;4.68;;
43646;SDS011;56152;49.996;18.980;2023-02-18T22:17:45;11.15;;;5.35;;
43646;SDS011;56152;49.996;18.980;2023-02-18T22:22:49;10.80;;;5.53;;
43646;SDS011;56152;49.996;18.980;2023-02-18T22:27:56;4.63;;;3.33;;
43646;SDS011;56152;49.996;18.980;2023-02-18T22:33:00;4.10;;;2.75;;
43646;SDS011;56152;49.996;18.980;2023-02-18T22:38:04;3.47;;;2.22;;
43646;SDS011;56152;49.996;18.980;2023-02-18T22:43:06;4.43;;;2.47;;
43646;SDS011;56152;49.996;18.980;2023-02-18T22:48:13;4.95;;;3.67;;
43646;SDS011;56152;49.996;18.980;2023-02-18T22:53:18;4.97;;;2.85;;
43646;SDS011;56152;49.996;18.980;2023-02-18T22:58:20;4.63;;;2.95;;
43646;SDS011;56152;49.996;18.980;2023-02-18T23:03:22;8.82;;;4.50;;
43646;SDS011;56152;49.996;18.980;2023-02-18T23:08:29;7.40;;;4.47;;
43646;SDS011;56152;49.996;18.980;2023-02-18T23:13:32;11.98;;;6.47;;
43646;SDS011;56152;49.996;18.980;2023-02-18T23:18:40;20.35;;;10.30;;
43646;SDS011;56152;49.996;18.980;2023-02-18T23:23:44;13.23;;;8.50;;
43646;SDS011;56152;49.996;18.980;2023-02-18T23:28:50;10.60;;;6.70;;
43646;SDS011;56152;49.996;18.980;2023-02-18T23:33:53;15.45;;;7.15;;
43646;SDS011;56152;49.996;18.980;2023-02-18T23:38:59;12.52;;;8.30;;
43646;SDS011;56152;49.996;18.980;2023-02-18T23:44:04;11.38;;;6.07;;
43646;SDS011;56152;49.996;18.980;2023-02-18T23:49:14;8.65;;;5.03;;
43646;SDS011;56152;49.996;18.980;2023-02-18T23:54:20;8.30;;;3.90;;
43646;SDS011;56152;49.996;18.980;2023-02-18T23:59:26;10.77;;;5.68;;
